Terminal Aerodrome Forecast
Issued by NWS

Home | Current Version | Previous Version | Text Only | Print | Product List | Glossary On
Versions: 1 2 3 4 5 6 7 8 9 10 11 12 13
875
FTUS43 KIND 181735
TAFBMG
TAF
KBMG 181735Z 1818/1918 23007KT P6SM OVC008
      TEMPO 1818/1820 3SM BR
     FM182300 23006KT P6SM BKN010
     FM190300 22006KT P6SM SCT015=

USA.gov is the U.S. government's official web portal to all federal, state and local government web resources and services.